Russell, Minnesota
Current Conditions -  °F | °C
As of 1:15 PM on Thursday 27 Nov 2014 (Local Time) from KMML Reporting Station
Clear Clear  
Wind Chill: -11°   Ceiling: Unl
Heat Index:   Visibility: 10mi
Dew Point: -8°   Wind: 9mph
Humidity: 61%   Direction: 160°SSE
Pressure: 30.4"   Gusts: NA
Location:  44.32°N, 95.95°W
Report Text: KMML 271915Z AUTO 16008KT 10SM CLR M16/M22 A3040 RMK AO1
Loading
Personal Weather Stations






























Interactive Weather Map New forecast layout! Learn more

10-Day Weather Forecast

Advertisements
Track Severe Weather on mobile